sensor_id;sensor_type;location;lat;lon;timestamp;temperature;humidity
34434;DHT22;34290;48.562;13.384;2023-07-22T00:01:23;15.60;99.90
34434;DHT22;34290;48.562;13.384;2023-07-22T00:03:50;15.60;99.90
34434;DHT22;34290;48.562;13.384;2023-07-22T00:06:17;15.50;99.90
34434;DHT22;34290;48.562;13.384;2023-07-22T00:08:46;15.50;99.90
34434;DHT22;34290;48.562;13.384;2023-07-22T00:11:13;15.50;99.90
34434;DHT22;34290;48.562;13.384;2023-07-22T00:13:40;15.40;99.90
34434;DHT22;34290;48.562;13.384;2023-07-22T00:16:08;15.30;99.90
34434;DHT22;34290;48.562;13.384;2023-07-22T00:18:36;15.20;99.90
34434;DHT22;34290;48.562;13.384;2023-07-22T00:21:04;15.10;99.90
34434;DHT22;34290;48.562;13.384;2023-07-22T00:23:32;15.10;99.90
34434;DHT22;34290;48.562;13.384;2023-07-22T00:26:00;15.10;99.90
34434;DHT22;34290;48.562;13.384;2023-07-22T00:28:28;15.10;99.90
34434;DHT22;34290;48.562;13.384;2023-07-22T00:30:55;15.00;99.90
34434;DHT22;34290;48.562;13.384;2023-07-22T00:33:23;15.00;99.90
34434;DHT22;34290;48.562;13.384;2023-07-22T00:35:50;15.00;99.90
34434;DHT22;34290;48.562;13.384;2023-07-22T00:38:17;14.90;99.90
34434;DHT22;34290;48.562;13.384;2023-07-22T00:40:44;14.90;99.90
34434;DHT22;34290;48.562;13.384;2023-07-22T00:43:13;14.90;99.90
34434;DHT22;34290;48.562;13.384;2023-07-22T00:45:40;14.90;99.90
34434;DHT22;34290;48.562;13.384;2023-07-22T00:48:07;14.90;99.90
34434;DHT22;34290;48.562;13.384;2023-07-22T00:50:35;14.80;99.90
34434;DHT22;34290;48.562;13.384;2023-07-22T00:53:03;14.80;99.90
34434;DHT22;34290;48.562;13.384;2023-07-22T00:55:33;14.60;99.90
34434;DHT22;34290;48.562;13.384;2023-07-22T00:58:01;14.60;99.90
34434;DHT22;34290;48.562;13.384;2023-07-22T01:00:29;14.60;99.90
34434;DHT22;34290;48.562;13.384;2023-07-22T01:02:57;14.60;99.90
34434;DHT22;34290;48.562;13.384;2023-07-22T01:05:25;14.50;99.90
34434;DHT22;34290;48.562;13.384;2023-07-22T01:07:53;14.40;99.90
34434;DHT22;34290;48.562;13.384;2023-07-22T01:10:21;14.50;99.90
34434;DHT22;34290;48.562;13.384;2023-07-22T01:12:48;14.30;99.90
34434;DHT22;34290;48.562;13.384;2023-07-22T01:15:16;14.20;99.90
34434;DHT22;34290;48.562;13.384;2023-07-22T01:17:45;14.30;99.90
34434;DHT22;34290;48.562;13.384;2023-07-22T01:20:13;14.20;99.90
34434;DHT22;34290;48.562;13.384;2023-07-22T01:22:42;14.40;99.90
34434;DHT22;34290;48.562;13.384;2023-07-22T01:25:11;14.10;99.90
34434;DHT22;34290;48.562;13.384;2023-07-22T01:27:38;14.40;99.90
34434;DHT22;34290;48.562;13.384;2023-07-22T01:30:06;14.30;99.90
34434;DHT22;34290;48.562;13.384;2023-07-22T01:32:35;14.30;99.90
34434;DHT22;34290;48.562;13.384;2023-07-22T01:35:02;14.10;99.90
34434;DHT22;34290;48.562;13.384;2023-07-22T01:37:29;13.80;99.90
34434;DHT22;34290;48.562;13.384;2023-07-22T01:39:57;13.70;99.90
34434;DHT22;34290;48.562;13.384;2023-07-22T01:42:25;13.60;99.90
34434;DHT22;34290;48.562;13.384;2023-07-22T01:44:53;13.90;99.90
34434;DHT22;34290;48.562;13.384;2023-07-22T01:47:20;13.30;99.90
34434;DHT22;34290;48.562;13.384;2023-07-22T01:52:14;13.50;99.90
34434;DHT22;34290;48.562;13.384;2023-07-22T01:57:08;13.30;99.90
34434;DHT22;34290;48.562;13.384;2023-07-22T01:59:37;13.20;99.90
34434;DHT22;34290;48.562;13.384;2023-07-22T02:02:04;13.40;99.90
34434;DHT22;34290;48.562;13.384;2023-07-22T02:06:58;13.40;99.90
34434;DHT22;34290;48.562;13.384;2023-07-22T02:11:53;13.50;99.90
34434;DHT22;34290;48.562;13.384;2023-07-22T02:14:20;13.30;99.90
34434;DHT22;34290;48.562;13.384;2023-07-22T02:16:48;13.90;99.90
34434;DHT22;34290;48.562;13.384;2023-07-22T02:19:15;13.00;99.90
34434;DHT22;34290;48.562;13.384;2023-07-22T02:21:42;13.20;99.90
34434;DHT22;34290;48.562;13.384;2023-07-22T02:24:09;12.90;99.90
34434;DHT22;34290;48.562;13.384;2023-07-22T02:26:37;12.60;99.90
34434;DHT22;34290;48.562;13.384;2023-07-22T02:29:04;12.70;99.90
34434;DHT22;34290;48.562;13.384;2023-07-22T02:31:31;12.60;99.90
34434;DHT22;34290;48.562;13.384;2023-07-22T02:33:59;12.70;99.90
34434;DHT22;34290;48.562;13.384;2023-07-22T02:36:26;12.40;99.90
34434;DHT22;34290;48.562;13.384;2023-07-22T02:38:53;12.10;99.90
34434;DHT22;34290;48.562;13.384;2023-07-22T02:41:20;12.20;99.90
34434;DHT22;34290;48.562;13.384;2023-07-22T02:43:47;12.10;99.90
34434;DHT22;34290;48.562;13.384;2023-07-22T02:46:14;11.90;99.90
34434;DHT22;34290;48.562;13.384;2023-07-22T02:48:41;12.00;99.90
34434;DHT22;34290;48.562;13.384;2023-07-22T02:51:10;11.70;99.90
34434;DHT22;34290;48.562;13.384;2023-07-22T02:53:37;11.90;99.90
34434;DHT22;34290;48.562;13.384;2023-07-22T02:56:05;12.00;99.90
34434;DHT22;34290;48.562;13.384;2023-07-22T02:58:32;11.80;99.90
34434;DHT22;34290;48.562;13.384;2023-07-22T03:01:00;11.80;99.90
34434;DHT22;34290;48.562;13.384;2023-07-22T03:05:54;11.80;99.90
34434;DHT22;34290;48.562;13.384;2023-07-22T03:08:24;11.60;99.90
34434;DHT22;34290;48.562;13.384;2023-07-22T03:10:51;12.10;99.90
34434;DHT22;34290;48.562;13.384;2023-07-22T03:13:18;11.60;99.90
34434;DHT22;34290;48.562;13.384;2023-07-22T03:15:45;11.70;99.90
34434;DHT22;34290;48.562;13.384;2023-07-22T03:18:12;11.60;99.90
34434;DHT22;34290;48.562;13.384;2023-07-22T03:20:39;11.60;99.90
34434;DHT22;34290;48.562;13.384;2023-07-22T03:23:07;11.40;99.90
34434;DHT22;34290;48.562;13.384;2023-07-22T03:25:35;11.00;99.90
34434;DHT22;34290;48.562;13.384;2023-07-22T03:28:04;11.00;99.90
34434;DHT22;34290;48.562;13.384;2023-07-22T03:30:31;11.30;99.90
34434;DHT22;34290;48.562;13.384;2023-07-22T03:32:59;11.30;99.90
34434;DHT22;34290;48.562;13.384;2023-07-22T03:35:26;12.10;99.90
34434;DHT22;34290;48.562;13.384;2023-07-22T03:37:53;11.00;99.90
34434;DHT22;34290;48.562;13.384;2023-07-22T03:40:20;11.40;99.90
34434;DHT22;34290;48.562;13.384;2023-07-22T03:42:55;11.30;99.90
34434;DHT22;34290;48.562;13.384;2023-07-22T03:45:22;11.10;99.90
34434;DHT22;34290;48.562;13.384;2023-07-22T03:47:51;11.20;99.90
34434;DHT22;34290;48.562;13.384;2023-07-22T03:50:20;11.10;99.90
34434;DHT22;34290;48.562;13.384;2023-07-22T03:52:47;11.20;99.90
34434;DHT22;34290;48.562;13.384;2023-07-22T03:55:14;11.10;99.90
34434;DHT22;34290;48.562;13.384;2023-07-22T03:57:41;11.10;99.90
34434;DHT22;34290;48.562;13.384;2023-07-22T04:00:10;11.20;99.90
34434;DHT22;34290;48.562;13.384;2023-07-22T04:02:37;11.30;99.90
34434;DHT22;34290;48.562;13.384;2023-07-22T04:05:04;11.40;99.90
34434;DHT22;34290;48.562;13.384;2023-07-22T04:07:31;11.60;99.90
34434;DHT22;34290;48.562;13.384;2023-07-22T04:09:58;11.70;99.90
34434;DHT22;34290;48.562;13.384;2023-07-22T04:12:25;11.90;99.90
34434;DHT22;34290;48.562;13.384;2023-07-22T04:14:52;11.90;99.90
34434;DHT22;34290;48.562;13.384;2023-07-22T04:17:21;11.90;99.90
34434;DHT22;34290;48.562;13.384;2023-07-22T04:19:48;12.00;99.90
34434;DHT22;34290;48.562;13.384;2023-07-22T04:22:17;12.20;99.90
34434;DHT22;34290;48.562;13.384;2023-07-22T04:24:44;12.30;99.90
34434;DHT22;34290;48.562;13.384;2023-07-22T04:27:14;12.60;99.90
34434;DHT22;34290;48.562;13.384;2023-07-22T04:29:41;12.80;99.90
34434;DHT22;34290;48.562;13.384;2023-07-22T04:32:08;12.90;99.90
34434;DHT22;34290;48.562;13.384;2023-07-22T04:34:37;13.20;99.90
34434;DHT22;34290;48.562;13.384;2023-07-22T04:37:05;13.70;99.90
34434;DHT22;34290;48.562;13.384;2023-07-22T04:39:32;14.40;99.90
34434;DHT22;34290;48.562;13.384;2023-07-22T04:41:59;14.70;99.90
34434;DHT22;34290;48.562;13.384;2023-07-22T04:44:27;14.70;99.90
34434;DHT22;34290;48.562;13.384;2023-07-22T04:46:54;14.60;99.90
34434;DHT22;34290;48.562;13.384;2023-07-22T04:49:21;14.70;99.90
34434;DHT22;34290;48.562;13.384;2023-07-22T04:51:49;15.00;99.90
34434;DHT22;34290;48.562;13.384;2023-07-22T04:54:16;15.10;99.90
34434;DHT22;34290;48.562;13.384;2023-07-22T04:56:43;15.60;99.90
34434;DHT22;34290;48.562;13.384;2023-07-22T04:59:10;16.20;99.90
34434;DHT22;34290;48.562;13.384;2023-07-22T05:01:39;16.50;99.90
34434;DHT22;34290;48.562;13.384;2023-07-22T05:04:06;16.80;99.90
34434;DHT22;34290;48.562;13.384;2023-07-22T05:06:33;17.30;99.90
34434;DHT22;34290;48.562;13.384;2023-07-22T05:09:02;17.50;99.90
34434;DHT22;34290;48.562;13.384;2023-07-22T05:11:29;17.90;99.90
34434;DHT22;34290;48.562;13.384;2023-07-22T05:13:56;18.20;99.90
34434;DHT22;34290;48.562;13.384;2023-07-22T05:16:23;19.00;99.90
34434;DHT22;34290;48.562;13.384;2023-07-22T05:18:50;19.80;99.90
34434;DHT22;34290;48.562;13.384;2023-07-22T05:21:17;20.10;99.90
34434;DHT22;34290;48.562;13.384;2023-07-22T05:23:45;22.20;99.90
34434;DHT22;34290;48.562;13.384;2023-07-22T05:26:13;22.10;99.90
34434;DHT22;34290;48.562;13.384;2023-07-22T05:31:07;25.00;96.60
34434;DHT22;34290;48.562;13.384;2023-07-22T05:33:34;25.30;96.10
34434;DHT22;34290;48.562;13.384;2023-07-22T05:36:01;25.50;95.40
34434;DHT22;34290;48.562;13.384;2023-07-22T05:38:28;25.90;94.80
34434;DHT22;34290;48.562;13.384;2023-07-22T05:40:56;25.60;95.00
34434;DHT22;34290;48.562;13.384;2023-07-22T05:43:25;26.60;94.20
34434;DHT22;34290;48.562;13.384;2023-07-22T05:45:52;27.00;94.30
34434;DHT22;34290;48.562;13.384;2023-07-22T05:48:19;28.40;92.30
34434;DHT22;34290;48.562;13.384;2023-07-22T05:50:47;29.10;90.30
34434;DHT22;34290;48.562;13.384;2023-07-22T05:53:14;29.20;90.70
34434;DHT22;34290;48.562;13.384;2023-07-22T05:55:41;29.20;91.10
34434;DHT22;34290;48.562;13.384;2023-07-22T05:58:15;29.60;90.20
34434;DHT22;34290;48.562;13.384;2023-07-22T06:00:44;29.30;90.20
34434;DHT22;34290;48.562;13.384;2023-07-22T06:03:11;29.30;90.60
34434;DHT22;34290;48.562;13.384;2023-07-22T06:05:38;29.30;90.40
34434;DHT22;34290;48.562;13.384;2023-07-22T06:08:05;30.50;85.50
34434;DHT22;34290;48.562;13.384;2023-07-22T06:10:32;30.70;86.40
34434;DHT22;34290;48.562;13.384;2023-07-22T06:15:26;28.60;87.60
34434;DHT22;34290;48.562;13.384;2023-07-22T06:23:11;27.70;89.40
34434;DHT22;34290;48.562;13.384;2023-07-22T06:25:38;28.40;90.30
34434;DHT22;34290;48.562;13.384;2023-07-22T06:28:05;29.30;89.50
34434;DHT22;34290;48.562;13.384;2023-07-22T06:30:31;29.50;88.50
34434;DHT22;34290;48.562;13.384;2023-07-22T06:33:00;29.40;88.00
34434;DHT22;34290;48.562;13.384;2023-07-22T06:35:27;28.50;89.10
34434;DHT22;34290;48.562;13.384;2023-07-22T06:37:54;29.10;87.80
34434;DHT22;34290;48.562;13.384;2023-07-22T06:40:21;29.00;88.00
34434;DHT22;34290;48.562;13.384;2023-07-22T06:45:15;28.40;88.10
34434;DHT22;34290;48.562;13.384;2023-07-22T06:50:11;28.90;86.80
34434;DHT22;34290;48.562;13.384;2023-07-22T06:52:38;28.50;88.60
34434;DHT22;34290;48.562;13.384;2023-07-22T06:55:05;27.70;87.50
34434;DHT22;34290;48.562;13.384;2023-07-22T06:57:33;28.50;87.00
34434;DHT22;34290;48.562;13.384;2023-07-22T06:59:59;28.90;87.40
34434;DHT22;34290;48.562;13.384;2023-07-22T07:02:27;29.90;86.00
34434;DHT22;34290;48.562;13.384;2023-07-22T07:04:53;29.60;86.60
34434;DHT22;34290;48.562;13.384;2023-07-22T07:07:22;29.10;86.30
34434;DHT22;34290;48.562;13.384;2023-07-22T07:12:16;29.30;87.50
34434;DHT22;34290;48.562;13.384;2023-07-22T07:14:43;30.00;86.10
34434;DHT22;34290;48.562;13.384;2023-07-22T07:17:10;30.10;87.60
34434;DHT22;34290;48.562;13.384;2023-07-22T07:22:05;30.10;86.80
34434;DHT22;34290;48.562;13.384;2023-07-22T07:24:33;30.30;85.20
34434;DHT22;34290;48.562;13.384;2023-07-22T07:27:00;30.70;87.60
34434;DHT22;34290;48.562;13.384;2023-07-22T07:29:27;30.70;83.50
34434;DHT22;34290;48.562;13.384;2023-07-22T07:31:54;29.20;86.60
34434;DHT22;34290;48.562;13.384;2023-07-22T07:34:21;28.30;86.30
34434;DHT22;34290;48.562;13.384;2023-07-22T07:36:48;27.80;89.40
34434;DHT22;34290;48.562;13.384;2023-07-22T07:39:15;28.60;88.40
34434;DHT22;34290;48.562;13.384;2023-07-22T07:41:44;30.00;87.20
34434;DHT22;34290;48.562;13.384;2023-07-22T07:44:11;29.90;86.20
34434;DHT22;34290;48.562;13.384;2023-07-22T07:49:05;29.90;85.20
34434;DHT22;34290;48.562;13.384;2023-07-22T07:51:32;31.20;83.40
34434;DHT22;34290;48.562;13.384;2023-07-22T07:53:59;31.40;82.70
34434;DHT22;34290;48.562;13.384;2023-07-22T07:56:26;31.50;83.60
34434;DHT22;34290;48.562;13.384;2023-07-22T07:58:56;31.30;81.90
34434;DHT22;34290;48.562;13.384;2023-07-22T08:01:23;30.10;83.20
34434;DHT22;34290;48.562;13.384;2023-07-22T08:03:50;31.10;84.20
34434;DHT22;34290;48.562;13.384;2023-07-22T08:06:17;31.20;82.90
34434;DHT22;34290;48.562;13.384;2023-07-22T08:08:44;31.40;81.20
34434;DHT22;34290;48.562;13.384;2023-07-22T08:11:12;31.40;80.10
34434;DHT22;34290;48.562;13.384;2023-07-22T08:13:40;30.20;81.50
34434;DHT22;34290;48.562;13.384;2023-07-22T08:16:12;30.60;82.50
34434;DHT22;34290;48.562;13.384;2023-07-22T08:18:40;30.80;80.80
34434;DHT22;34290;48.562;13.384;2023-07-22T08:21:07;30.70;83.50
34434;DHT22;34290;48.562;13.384;2023-07-22T08:23:35;31.80;81.10
34434;DHT22;34290;48.562;13.384;2023-07-22T08:26:02;32.60;78.80
34434;DHT22;34290;48.562;13.384;2023-07-22T08:28:31;32.20;79.00
34434;DHT22;34290;48.562;13.384;2023-07-22T08:30:58;31.50;78.20
34434;DHT22;34290;48.562;13.384;2023-07-22T08:35:54;31.20;75.30
34434;DHT22;34290;48.562;13.384;2023-07-22T08:38:21;30.80;79.10
34434;DHT22;34290;48.562;13.384;2023-07-22T08:40:49;30.30;77.90
34434;DHT22;34290;48.562;13.384;2023-07-22T08:43:19;29.70;77.50
34434;DHT22;34290;48.562;13.384;2023-07-22T08:45:47;29.60;78.00
34434;DHT22;34290;48.562;13.384;2023-07-22T08:48:16;29.60;79.00
34434;DHT22;34290;48.562;13.384;2023-07-22T08:50:49;29.70;80.20
34434;DHT22;34290;48.562;13.384;2023-07-22T08:53:20;29.10;79.80
34434;DHT22;34290;48.562;13.384;2023-07-22T08:55:47;30.30;79.60
34434;DHT22;34290;48.562;13.384;2023-07-22T08:58:15;30.60;78.20
34434;DHT22;34290;48.562;13.384;2023-07-22T09:00:43;30.70;78.30
34434;DHT22;34290;48.562;13.384;2023-07-22T09:03:11;31.70;78.40
34434;DHT22;34290;48.562;13.384;2023-07-22T09:05:38;32.80;78.80
34434;DHT22;34290;48.562;13.384;2023-07-22T09:08:07;32.10;76.30
34434;DHT22;34290;48.562;13.384;2023-07-22T09:10:35;32.00;75.90
34434;DHT22;34290;48.562;13.384;2023-07-22T09:13:02;31.20;77.00
34434;DHT22;34290;48.562;13.384;2023-07-22T09:15:34;31.00;76.90
34434;DHT22;34290;48.562;13.384;2023-07-22T09:18:01;30.70;77.60
34434;DHT22;34290;48.562;13.384;2023-07-22T09:20:28;30.70;78.50
34434;DHT22;34290;48.562;13.384;2023-07-22T09:22:56;30.60;77.50
34434;DHT22;34290;48.562;13.384;2023-07-22T09:25:25;29.80;79.10
34434;DHT22;34290;48.562;13.384;2023-07-22T09:27:53;29.10;79.10
34434;DHT22;34290;48.562;13.384;2023-07-22T09:30:25;28.80;78.90
34434;DHT22;34290;48.562;13.384;2023-07-22T09:32:53;27.70;81.60
34434;DHT22;34290;48.562;13.384;2023-07-22T09:37:47;28.00;81.80
34434;DHT22;34290;48.562;13.384;2023-07-22T09:40:16;27.50;81.60
34434;DHT22;34290;48.562;13.384;2023-07-22T09:42:45;27.00;82.70
34434;DHT22;34290;48.562;13.384;2023-07-22T09:45:12;27.60;83.50
34434;DHT22;34290;48.562;13.384;2023-07-22T09:47:43;27.60;80.50
34434;DHT22;34290;48.562;13.384;2023-07-22T09:50:11;27.60;82.30
34434;DHT22;34290;48.562;13.384;2023-07-22T09:52:46;27.20;82.10
34434;DHT22;34290;48.562;13.384;2023-07-22T09:55:19;26.80;82.30
34434;DHT22;34290;48.562;13.384;2023-07-22T09:57:51;27.50;80.90
34434;DHT22;34290;48.562;13.384;2023-07-22T10:00:20;27.10;82.60
34434;DHT22;34290;48.562;13.384;2023-07-22T10:02:48;27.20;83.20
34434;DHT22;34290;48.562;13.384;2023-07-22T10:05:18;27.20;82.10
34434;DHT22;34290;48.562;13.384;2023-07-22T10:07:46;26.30;83.20
34434;DHT22;34290;48.562;13.384;2023-07-22T10:10:16;25.50;84.60
34434;DHT22;34290;48.562;13.384;2023-07-22T10:12:44;25.30;84.70
34434;DHT22;34290;48.562;13.384;2023-07-22T10:15:13;25.40;86.40
34434;DHT22;34290;48.562;13.384;2023-07-22T10:17:41;25.80;85.20
34434;DHT22;34290;48.562;13.384;2023-07-22T10:20:10;26.00;85.10
34434;DHT22;34290;48.562;13.384;2023-07-22T10:22:42;26.10;84.50
34434;DHT22;34290;48.562;13.384;2023-07-22T10:25:11;26.20;84.50
34434;DHT22;34290;48.562;13.384;2023-07-22T10:27:38;26.30;85.20
34434;DHT22;34290;48.562;13.384;2023-07-22T10:30:07;26.60;82.80
34434;DHT22;34290;48.562;13.384;2023-07-22T10:32:38;27.20;80.90
34434;DHT22;34290;48.562;13.384;2023-07-22T10:35:09;27.30;81.60
34434;DHT22;34290;48.562;13.384;2023-07-22T10:37:37;26.60;83.60
34434;DHT22;34290;48.562;13.384;2023-07-22T10:40:17;26.60;83.10
34434;DHT22;34290;48.562;13.384;2023-07-22T10:42:52;26.40;82.90
34434;DHT22;34290;48.562;13.384;2023-07-22T10:45:27;26.90;83.10
34434;DHT22;34290;48.562;13.384;2023-07-22T10:48:05;27.20;82.00
34434;DHT22;34290;48.562;13.384;2023-07-22T10:50:43;27.20;82.00
34434;DHT22;34290;48.562;13.384;2023-07-22T10:53:13;27.10;81.10
34434;DHT22;34290;48.562;13.384;2023-07-22T10:56:03;26.60;78.80
34434;DHT22;34290;48.562;13.384;2023-07-22T10:58:30;25.40;81.90
34434;DHT22;34290;48.562;13.384;2023-07-22T11:01:20;25.40;82.60
34434;DHT22;34290;48.562;13.384;2023-07-22T11:04:13;25.40;82.60
34434;DHT22;34290;48.562;13.384;2023-07-22T11:06:52;25.70;82.50
34434;DHT22;34290;48.562;13.384;2023-07-22T11:09:41;26.00;81.30
34434;DHT22;34290;48.562;13.384;2023-07-22T11:12:13;25.80;81.80
34434;DHT22;34290;48.562;13.384;2023-07-22T11:14:47;25.80;82.30
34434;DHT22;34290;48.562;13.384;2023-07-22T11:17:14;25.90;83.30
34434;DHT22;34290;48.562;13.384;2023-07-22T11:19:43;25.90;83.00
34434;DHT22;34290;48.562;13.384;2023-07-22T11:22:10;25.90;81.90
34434;DHT22;34290;48.562;13.384;2023-07-22T11:24:37;25.80;82.30
34434;DHT22;34290;48.562;13.384;2023-07-22T11:27:06;26.10;82.30
34434;DHT22;34290;48.562;13.384;2023-07-22T11:29:34;26.10;82.30
34434;DHT22;34290;48.562;13.384;2023-07-22T11:32:15;25.90;83.30
34434;DHT22;34290;48.562;13.384;2023-07-22T11:34:44;25.80;80.80
34434;DHT22;34290;48.562;13.384;2023-07-22T11:37:12;25.90;81.30
34434;DHT22;34290;48.562;13.384;2023-07-22T11:39:40;26.10;83.30
34434;DHT22;34290;48.562;13.384;2023-07-22T11:42:09;25.90;82.30
34434;DHT22;34290;48.562;13.384;2023-07-22T11:44:36;26.00;83.40
34434;DHT22;34290;48.562;13.384;2023-07-22T11:47:05;26.50;82.10
34434;DHT22;34290;48.562;13.384;2023-07-22T11:49:34;26.60;82.50
34434;DHT22;34290;48.562;13.384;2023-07-22T11:52:04;26.90;84.10
34434;DHT22;34290;48.562;13.384;2023-07-22T11:54:36;26.30;81.10
34434;DHT22;34290;48.562;13.384;2023-07-22T11:57:14;26.20;81.50
34434;DHT22;34290;48.562;13.384;2023-07-22T11:59:44;26.10;81.80
34434;DHT22;34290;48.562;13.384;2023-07-22T12:02:13;26.40;81.10
34434;DHT22;34290;48.562;13.384;2023-07-22T12:04:40;26.60;80.40
34434;DHT22;34290;48.562;13.384;2023-07-22T12:07:21;26.40;79.00
34434;DHT22;34290;48.562;13.384;2023-07-22T12:09:48;26.10;81.50
34434;DHT22;34290;48.562;13.384;2023-07-22T12:12:15;26.10;80.30
34434;DHT22;34290;48.562;13.384;2023-07-22T12:14:42;26.60;81.20
34434;DHT22;34290;48.562;13.384;2023-07-22T12:17:09;26.70;80.50
34434;DHT22;34290;48.562;13.384;2023-07-22T12:19:36;27.20;81.20
34434;DHT22;34290;48.562;13.384;2023-07-22T12:22:03;27.20;79.90
34434;DHT22;34290;48.562;13.384;2023-07-22T12:24:32;27.20;80.30
34434;DHT22;34290;48.562;13.384;2023-07-22T12:26:59;26.80;79.40
34434;DHT22;34290;48.562;13.384;2023-07-22T12:29:26;26.70;80.00
34434;DHT22;34290;48.562;13.384;2023-07-22T12:31:53;26.70;81.50
34434;DHT22;34290;48.562;13.384;2023-07-22T12:34:20;26.60;80.20
34434;DHT22;34290;48.562;13.384;2023-07-22T12:36:47;26.60;81.40
34434;DHT22;34290;48.562;13.384;2023-07-22T12:39:14;26.60;80.40
34434;DHT22;34290;48.562;13.384;2023-07-22T12:44:10;25.70;80.50
34434;DHT22;34290;48.562;13.384;2023-07-22T12:49:04;25.90;83.30
34434;DHT22;34290;48.562;13.384;2023-07-22T12:51:31;25.90;81.70
34434;DHT22;34290;48.562;13.384;2023-07-22T12:53:58;26.00;82.90
34434;DHT22;34290;48.562;13.384;2023-07-22T12:56:25;26.00;81.50
34434;DHT22;34290;48.562;13.384;2023-07-22T12:58:53;25.90;81.00
34434;DHT22;34290;48.562;13.384;2023-07-22T13:01:20;25.80;81.50
34434;DHT22;34290;48.562;13.384;2023-07-22T13:03:47;26.00;82.70
34434;DHT22;34290;48.562;13.384;2023-07-22T13:06:14;26.10;81.50
34434;DHT22;34290;48.562;13.384;2023-07-22T13:08:41;26.20;81.30
34434;DHT22;34290;48.562;13.384;2023-07-22T13:11:08;26.20;81.50
34434;DHT22;34290;48.562;13.384;2023-07-22T13:13:35;25.90;80.80
34434;DHT22;34290;48.562;13.384;2023-07-22T13:16:03;25.90;83.60
34434;DHT22;34290;48.562;13.384;2023-07-22T13:18:30;26.10;80.10
34434;DHT22;34290;48.562;13.384;2023-07-22T13:20:57;26.20;80.60
34434;DHT22;34290;48.562;13.384;2023-07-22T13:23:24;26.10;81.40
34434;DHT22;34290;48.562;13.384;2023-07-22T13:25:51;26.40;82.00
34434;DHT22;34290;48.562;13.384;2023-07-22T13:28:18;27.00;78.20
34434;DHT22;34290;48.562;13.384;2023-07-22T13:30:45;27.10;79.70
34434;DHT22;34290;48.562;13.384;2023-07-22T13:33:13;27.30;77.80
34434;DHT22;34290;48.562;13.384;2023-07-22T13:35:40;26.80;78.70
34434;DHT22;34290;48.562;13.384;2023-07-22T13:38:07;26.30;77.80
34434;DHT22;34290;48.562;13.384;2023-07-22T13:40:34;26.20;78.90
34434;DHT22;34290;48.562;13.384;2023-07-22T13:43:01;26.30;78.90
34434;DHT22;34290;48.562;13.384;2023-07-22T13:47:55;26.50;78.70
34434;DHT22;34290;48.562;13.384;2023-07-22T13:50:24;26.50;79.10
34434;DHT22;34290;48.562;13.384;2023-07-22T13:52:51;26.90;79.60
34434;DHT22;34290;48.562;13.384;2023-07-22T13:55:18;26.50;78.00
34434;DHT22;34290;48.562;13.384;2023-07-22T13:57:47;26.40;78.80
34434;DHT22;34290;48.562;13.384;2023-07-22T14:00:15;26.30;78.30
34434;DHT22;34290;48.562;13.384;2023-07-22T14:02:42;26.40;78.90
34434;DHT22;34290;48.562;13.384;2023-07-22T14:05:10;26.40;77.30
34434;DHT22;34290;48.562;13.384;2023-07-22T14:07:39;26.40;78.70
34434;DHT22;34290;48.562;13.384;2023-07-22T14:10:06;26.60;77.40
34434;DHT22;34290;48.562;13.384;2023-07-22T14:12:34;26.50;78.40
34434;DHT22;34290;48.562;13.384;2023-07-22T14:15:01;26.40;78.80
34434;DHT22;34290;48.562;13.384;2023-07-22T14:17:30;26.40;80.10
34434;DHT22;34290;48.562;13.384;2023-07-22T14:19:58;26.10;78.00
34434;DHT22;34290;48.562;13.384;2023-07-22T14:22:25;26.10;80.10
34434;DHT22;34290;48.562;13.384;2023-07-22T14:24:53;26.20;80.20
34434;DHT22;34290;48.562;13.384;2023-07-22T14:27:20;25.60;80.30
34434;DHT22;34290;48.562;13.384;2023-07-22T14:29:47;25.30;80.50
34434;DHT22;34290;48.562;13.384;2023-07-22T14:32:14;25.30;81.00
34434;DHT22;34290;48.562;13.384;2023-07-22T14:37:09;25.20;81.70
34434;DHT22;34290;48.562;13.384;2023-07-22T14:39:36;25.20;80.90
34434;DHT22;34290;48.562;13.384;2023-07-22T14:42:04;24.90;81.20
34434;DHT22;34290;48.562;13.384;2023-07-22T14:44:31;24.90;81.30
34434;DHT22;34290;48.562;13.384;2023-07-22T14:46:58;24.80;82.10
34434;DHT22;34290;48.562;13.384;2023-07-22T14:49:25;24.90;81.90
34434;DHT22;34290;48.562;13.384;2023-07-22T14:51:52;24.90;81.40
34434;DHT22;34290;48.562;13.384;2023-07-22T14:54:19;25.00;82.80
34434;DHT22;34290;48.562;13.384;2023-07-22T14:56:46;24.90;81.00
34434;DHT22;34290;48.562;13.384;2023-07-22T14:59:15;24.70;81.30
34434;DHT22;34290;48.562;13.384;2023-07-22T15:01:42;24.70;81.40
34434;DHT22;34290;48.562;13.384;2023-07-22T15:04:09;24.80;82.30
34434;DHT22;34290;48.562;13.384;2023-07-22T15:06:36;24.80;81.60
34434;DHT22;34290;48.562;13.384;2023-07-22T15:09:04;25.00;82.80
34434;DHT22;34290;48.562;13.384;2023-07-22T15:11:33;24.90;81.90
34434;DHT22;34290;48.562;13.384;2023-07-22T15:14:00;24.80;81.60
34434;DHT22;34290;48.562;13.384;2023-07-22T15:16:28;24.60;82.00
34434;DHT22;34290;48.562;13.384;2023-07-22T15:18:56;24.50;82.80
34434;DHT22;34290;48.562;13.384;2023-07-22T15:21:23;24.40;82.20
34434;DHT22;34290;48.562;13.384;2023-07-22T15:23:50;24.50;81.90
34434;DHT22;34290;48.562;13.384;2023-07-22T15:26:17;24.50;82.00
34434;DHT22;34290;48.562;13.384;2023-07-22T15:28:44;24.60;81.50
34434;DHT22;34290;48.562;13.384;2023-07-22T15:31:12;24.50;82.00
34434;DHT22;34290;48.562;13.384;2023-07-22T15:33:41;24.50;82.40
34434;DHT22;34290;48.562;13.384;2023-07-22T15:36:08;24.50;81.80
34434;DHT22;34290;48.562;13.384;2023-07-22T15:38:36;24.40;82.40
34434;DHT22;34290;48.562;13.384;2023-07-22T15:41:03;24.40;83.10
34434;DHT22;34290;48.562;13.384;2023-07-22T15:43:30;24.50;82.70
34434;DHT22;34290;48.562;13.384;2023-07-22T15:45:56;24.50;83.70
34434;DHT22;34290;48.562;13.384;2023-07-22T15:48:24;24.50;84.90
34434;DHT22;34290;48.562;13.384;2023-07-22T15:50:52;24.50;85.70
34434;DHT22;34290;48.562;13.384;2023-07-22T15:53:20;24.50;83.50
34434;DHT22;34290;48.562;13.384;2023-07-22T15:55:47;24.50;83.00
34434;DHT22;34290;48.562;13.384;2023-07-22T15:58:15;24.50;81.90
34434;DHT22;34290;48.562;13.384;2023-07-22T16:00:42;24.50;82.60
34434;DHT22;34290;48.562;13.384;2023-07-22T16:03:09;24.60;83.00
34434;DHT22;34290;48.562;13.384;2023-07-22T16:05:36;24.70;82.70
34434;DHT22;34290;48.562;13.384;2023-07-22T16:08:05;24.70;81.20
34434;DHT22;34290;48.562;13.384;2023-07-22T16:10:33;24.60;81.80